Time;durP1;ratioP1;P1;durP2;ratioP2;P2;SDS_P1;SDS_P2;PMS_P1;PMS_P2;Temp;Humidity;BMP_temperature;BMP_pressure;BME280_temperature;BME280_humidity;BME280_pressure;Samples;Min_cycle;Max_cycle;Signal;HPM_P1;HPM_P2
2023/05/03 00:00:31;;;;;;;7.80;3.50;;;;;;;5.55;100.00;102903.03;5024531;28;20222;-69
2023/05/03 00:02:57;;;;;;;6.77;3.07;;;;;;;5.52;100.00;102910.47;5023737;28;20281;-69
2023/05/03 00:05:24;;;;;;;7.30;3.60;;;;;;;5.45;100.00;102905.69;5019769;28;20573;-69
2023/05/03 00:07:49;;;;;;;7.63;3.20;;;;;;;5.42;100.00;102908.91;5028048;28;20239;-69
2023/05/03 00:10:15;;;;;;;4.83;3.27;;;;;;;5.29;100.00;102911.31;5021119;28;20258;-69
2023/05/03 00:12:42;;;;;;;5.87;3.50;;;;;;;5.32;100.00;102910.66;5025566;28;20186;-69
2023/05/03 00:15:08;;;;;;;10.73;3.70;;;;;;;5.25;100.00;102905.91;5023519;28;20222;-69
2023/05/03 00:17:34;;;;;;;6.33;3.40;;;;;;;5.21;100.00;102909.00;5025193;28;20321;-69
2023/05/03 00:20:00;;;;;;;7.80;3.50;;;;;;;5.12;100.00;102904.13;5017888;28;20206;-69
2023/05/03 00:22:26;;;;;;;7.13;3.53;;;;;;;5.00;100.00;102907.38;5009525;28;20661;-68
2023/05/03 00:24:51;;;;;;;9.07;3.60;;;;;;;5.01;100.00;102897.34;5025032;28;20732;-69
2023/05/03 00:27:17;;;;;;;7.07;3.60;;;;;;;4.95;100.00;102909.59;5025933;28;20700;-68
2023/05/03 00:29:43;;;;;;;5.57;3.23;;;;;;;4.91;100.00;102902.53;5021745;28;20238;-69
2023/05/03 00:32:09;;;;;;;8.13;3.50;;;;;;;4.82;100.00;102906.00;5017608;28;20233;-68
2023/05/03 00:34:38;;;;;;;6.30;3.60;;;;;;;4.79;100.00;102906.66;5009516;28;20210;-70
2023/05/03 00:37:04;;;;;;;7.90;3.17;;;;;;;4.73;100.00;102902.78;4994238;28;20221;-70
2023/05/03 00:39:30;;;;;;;6.57;3.67;;;;;;;4.70;100.00;102905.09;5007447;28;20214;-70
2023/05/03 00:41:59;;;;;;;3.70;3.23;;;;;;;4.60;100.00;102906.03;5023307;28;20271;-70
2023/05/03 00:44:24;;;;;;;7.53;3.63;;;;;;;4.59;100.00;102908.47;5012191;28;20195;-70
2023/05/03 00:46:51;;;;;;;8.17;3.37;;;;;;;4.47;100.00;102912.63;5008801;28;20256;-70
2023/05/03 00:49:17;;;;;;;5.00;2.93;;;;;;;4.47;100.00;102910.09;5018721;28;20202;-69
2023/05/03 00:51:42;;;;;;;5.97;3.57;;;;;;;4.44;100.00;102919.97;5011163;28;20187;-70
2023/05/03 00:54:09;;;;;;;7.07;3.70;;;;;;;4.53;100.00;102910.53;5019546;28;20226;-70
2023/05/03 00:56:36;;;;;;;7.47;3.63;;;;;;;4.52;100.00;102911.31;5026618;28;20194;-69
2023/05/03 00:59:02;;;;;;;5.87;3.37;;;;;;;4.50;100.00;102908.66;5018292;28;20678;-70
2023/05/03 01:01:29;;;;;;;6.67;3.90;;;;;;;4.57;100.00;102902.41;5012214;28;20245;-70
2023/05/03 01:03:55;;;;;;;8.73;3.73;;;;;;;4.58;100.00;102905.06;5011916;28;20186;-69
2023/05/03 01:06:36;;;;;;;6.60;3.57;;;;;;;4.52;100.00;102904.56;5020862;28;21162;-69
2023/05/03 01:09:11;;;;;;;7.03;3.77;;;;;;;4.55;100.00;102909.88;5007572;28;20198;-69
2023/05/03 01:12:09;;;;;;;5.90;3.70;;;;;;;4.49;100.00;102906.00;5024199;28;20201;-70
2023/05/03 01:14:40;;;;;;;7.90;4.43;;;;;;;4.47;100.00;102910.09;4982161;28;20218;-70
2023/05/03 01:17:11;;;;;;;7.23;3.80;;;;;;;4.39;100.00;102903.53;5019419;28;20736;-69
2023/05/03 01:20:03;;;;;;;8.53;4.23;;;;;;;4.32;100.00;102912.31;5018145;28;20214;-69
2023/05/03 01:23:01;;;;;;;11.07;3.90;;;;;;;4.41;100.00;102912.13;5021029;28;20253;-69
2023/05/03 01:25:26;;;;;;;13.10;4.90;;;;;;;4.41;100.00;102914.66;4996678;28;20224;-69
2023/05/03 01:27:52;;;;;;;10.97;4.90;;;;;;;4.39;100.00;102924.72;5004592;28;20195;-69
2023/05/03 01:30:22;;;;;;;7.43;4.70;;;;;;;4.31;100.00;102917.25;5017356;28;20227;-69
2023/05/03 01:33:06;;;;;;;4.83;4.30;;;;;;;4.18;100.00;102928.09;5005381;28;20735;-69
2023/05/03 01:35:50;;;;;;;9.60;5.20;;;;;;;4.20;100.00;102921.53;5006796;28;20243;-69
2023/05/03 01:38:17;;;;;;;10.43;5.93;;;;;;;4.17;100.00;102926.34;5011585;28;20763;-69
2023/05/03 01:40:49;;;;;;;8.20;4.20;;;;;;;4.14;100.00;102927.75;5025096;28;20214;-68
2023/05/03 01:43:15;;;;;;;8.53;4.30;;;;;;;4.10;100.00;102930.81;5023086;28;20194;-68
2023/05/03 01:45:41;;;;;;;7.83;4.07;;;;;;;3.98;100.00;102934.91;5023175;28;20276;-69
2023/05/03 01:48:25;;;;;;;7.10;4.00;;;;;;;3.91;100.00;102937.75;5016275;28;20300;-68
2023/05/03 01:50:50;;;;;;;7.33;3.80;;;;;;;3.93;100.00;102939.63;5004246;28;20252;-68
2023/05/03 01:53:16;;;;;;;7.73;3.83;;;;;;;3.86;100.00;102936.50;5019141;28;20685;-68
2023/05/03 01:55:41;;;;;;;6.83;4.20;;;;;;;3.83;100.00;102931.16;5005621;28;20631;-68
2023/05/03 01:58:07;;;;;;;8.33;4.53;;;;;;;3.84;100.00;102938.91;5020926;28;20198;-69
2023/05/03 02:00:32;;;;;;;5.27;4.20;;;;;;;3.80;100.00;102939.41;5023364;28;20218;-69
2023/05/03 02:02:58;;;;;;;8.50;4.20;;;;;;;3.76;100.00;102939.03;5008888;28;21045;-73
2023/05/03 02:05:24;;;;;;;7.87;4.87;;;;;;;3.73;100.00;102937.13;5001382;28;20224;-69
2023/05/03 02:07:50;;;;;;;11.70;4.30;;;;;;;3.57;100.00;102946.81;5019395;28;20280;-69
2023/05/03 02:10:16;;;;;;;10.67;4.80;;;;;;;3.58;100.00;102940.97;5018628;28;20775;-69
2023/05/03 02:12:42;;;;;;;8.07;4.50;;;;;;;3.56;100.00;102942.53;5028598;28;20229;-69
2023/05/03 02:15:08;;;;;;;10.00;4.53;;;;;;;3.57;100.00;102943.38;5005242;28;20225;-69
2023/05/03 02:17:34;;;;;;;9.63;4.13;;;;;;;3.52;100.00;102953.16;5020812;28;20552;-69
2023/05/03 02:19:59;;;;;;;7.47;4.00;;;;;;;3.55;100.00;102949.97;5018116;28;20202;-69
2023/05/03 02:22:25;;;;;;;9.17;4.13;;;;;;;3.51;100.00;102951.38;5019250;28;20186;-68
2023/05/03 02:24:51;;;;;;;9.53;4.10;;;;;;;3.46;100.00;102959.38;5022933;28;20186;-69
2023/05/03 02:27:16;;;;;;;8.30;4.27;;;;;;;3.44;100.00;102953.28;5017925;28;20246;-68
2023/05/03 02:29:42;;;;;;;5.97;4.30;;;;;;;3.42;100.00;102957.34;5016983;28;20233;-68
2023/05/03 02:32:08;;;;;;;7.17;4.43;;;;;;;3.41;100.00;102953.91;5000703;28;20248;-68
2023/05/03 02:34:33;;;;;;;5.93;3.83;;;;;;;3.38;100.00;102952.78;5009270;28;20222;-68
2023/05/03 02:36:59;;;;;;;8.13;3.87;;;;;;;3.45;100.00;102948.34;5014044;28;20198;-68
2023/05/03 02:39:24;;;;;;;6.57;4.60;;;;;;;3.47;100.00;102958.59;5017820;28;20309;-69
2023/05/03 02:41:50;;;;;;;7.37;4.20;;;;;;;3.41;100.00;102961.50;5004584;28;20194;-68
2023/05/03 02:44:16;;;;;;;7.80;4.60;;;;;;;3.44;100.00;102959.25;5019560;28;20586;-68
2023/05/03 02:46:41;;;;;;;7.07;4.87;;;;;;;3.41;100.00;102961.50;5019400;28;20249;-68
2023/05/03 02:49:08;;;;;;;7.70;4.67;;;;;;;3.42;100.00;102959.88;5017491;28;20872;-68
2023/05/03 02:51:34;;;;;;;9.87;4.70;;;;;;;3.45;100.00;102966.06;5019873;28;20194;-68
2023/05/03 02:53:59;;;;;;;9.37;5.17;;;;;;;3.47;100.00;102958.59;5004185;28;20232;-68
2023/05/03 02:56:25;;;;;;;7.87;5.37;;;;;;;3.49;100.00;102960.50;5020514;28;20199;-68
2023/05/03 02:58:51;;;;;;;5.87;5.20;;;;;;;3.47;100.00;102966.19;5006265;28;20198;-68
2023/05/03 03:01:18;;;;;;;8.83;5.10;;;;;;;3.43;100.00;102960.00;5019001;28;20598;-68
2023/05/03 03:03:44;;;;;;;10.40;6.27;;;;;;;3.43;100.00;102964.16;5010278;28;20672;-68
2023/05/03 03:06:10;;;;;;;8.10;5.07;;;;;;;3.43;100.00;102960.00;5024442;28;20225;-68
2023/05/03 03:08:36;;;;;;;6.73;4.77;;;;;;;3.47;100.00;102961.13;5024143;28;20191;-68
2023/05/03 03:11:04;;;;;;;9.73;5.20;;;;;;;3.47;100.00;102964.56;5006279;28;20264;-68
2023/05/03 03:13:31;;;;;;;9.50;5.40;;;;;;;3.53;100.00;102957.44;5008605;28;20198;-68
2023/05/03 03:15:57;;;;;;;9.67;5.17;;;;;;;3.54;100.00;102961.75;5007880;28;20900;-68
2023/05/03 03:18:23;;;;;;;9.20;5.23;;;;;;;3.59;100.00;102964.66;5017527;28;20194;-68
2023/05/03 03:20:48;;;;;;;10.93;5.30;;;;;;;3.63;100.00;102966.69;5006966;28;20663;-70
2023/05/03 03:23:14;;;;;;;9.60;5.33;;;;;;;3.65;100.00;102963.53;5006886;28;20194;-69
2023/05/03 03:25:41;;;;;;;12.50;5.47;;;;;;;3.69;100.00;102967.19;5023178;28;20648;-69
2023/05/03 03:28:07;;;;;;;9.63;5.37;;;;;;;3.78;100.00;102971.31;5001322;28;20248;-69
2023/05/03 03:30:34;;;;;;;13.60;6.40;;;;;;;3.84;100.00;102966.75;5025743;28;20213;-69
2023/05/03 03:33:17;;;;;;;8.73;5.90;;;;;;;3.88;100.00;102962.81;5011089;28;20615;-69
2023/05/03 03:35:43;;;;;;;11.73;5.77;;;;;;;3.93;100.00;102971.66;5012651;28;20194;-69
2023/05/03 03:38:10;;;;;;;9.47;5.53;;;;;;;3.97;100.00;102968.63;5024682;28;20209;-69
2023/05/03 03:40:41;;;;;;;9.33;5.80;;;;;;;4.01;100.00;102973.19;5010849;28;20598;-71
2023/05/03 03:43:07;;;;;;;8.67;5.60;;;;;;;4.04;100.00;102964.16;5022981;28;20205;-71
2023/05/03 03:45:34;;;;;;;7.87;5.90;;;;;;;4.09;100.00;102964.53;5030215;28;20191;-69
2023/05/03 03:47:59;;;;;;;9.97;6.37;;;;;;;4.10;100.00;102967.16;5027850;28;20282;-69
2023/05/03 03:50:25;;;;;;;8.03;5.97;;;;;;;4.12;100.00;102965.66;5022032;28;20259;-70
2023/05/03 03:52:51;;;;;;;9.67;6.23;;;;;;;4.16;100.00;102967.66;5023127;28;20191;-70
2023/05/03 03:55:17;;;;;;;9.83;6.43;;;;;;;4.17;100.00;102954.22;5026386;28;20221;-69
2023/05/03 03:57:47;;;;;;;8.17;5.63;;;;;;;4.22;100.00;102959.63;5018955;28;20622;-69
2023/05/03 04:00:13;;;;;;;10.83;6.50;;;;;;;4.26;100.00;102962.56;5029134;28;20268;-69
2023/05/03 04:02:40;;;;;;;9.27;6.23;;;;;;;4.31;100.00;102961.25;5012554;28;20248;-68
2023/05/03 04:05:13;;;;;;;10.73;6.63;;;;;;;4.33;100.00;102961.38;5024052;28;20653;-69
2023/05/03 04:07:39;;;;;;;6.83;5.70;;;;;;;4.38;100.00;102966.03;5009837;28;20194;-68
2023/05/03 04:10:05;;;;;;;8.27;6.10;;;;;;;4.42;100.00;102962.97;5011082;28;20214;-68
2023/05/03 04:12:30;;;;;;;9.73;6.57;;;;;;;4.45;100.00;102963.22;5022555;28;20209;-68
2023/05/03 04:14:56;;;;;;;11.73;6.40;;;;;;;4.49;100.00;102961.78;5011234;28;20273;-68
2023/05/03 04:17:22;;;;;;;11.80;7.43;;;;;;;4.53;100.00;102959.63;5025886;28;20655;-68
2023/05/03 04:19:47;;;;;;;13.63;7.27;;;;;;;4.54;100.00;102960.50;5009855;28;20210;-68
2023/05/03 04:22:13;;;;;;;11.10;7.30;;;;;;;4.62;100.00;102964.50;5024574;28;20198;-69
2023/05/03 04:24:39;;;;;;;8.63;6.00;;;;;;;4.68;100.00;102970.03;5010836;28;20194;-68
2023/05/03 04:27:05;;;;;;;13.80;7.30;;;;;;;4.69;100.00;102962.56;4994619;28;20591;-68
2023/05/03 04:29:37;;;;;;;12.43;7.23;;;;;;;4.70;100.00;102956.72;5013045;28;20278;-68
2023/05/03 04:32:05;;;;;;;9.50;6.50;;;;;;;4.73;100.00;102971.28;5014837;28;20583;-68
2023/05/03 04:34:31;;;;;;;14.40;7.50;;;;;;;4.77;100.00;102968.22;5019958;28;20587;-68
2023/05/03 04:36:59;;;;;;;13.37;7.23;;;;;;;4.86;100.00;102966.38;5021964;28;20191;-70
2023/05/03 04:39:25;;;;;;;9.33;6.40;;;;;;;4.95;100.00;102969.63;5021229;28;20215;-70
2023/05/03 04:41:52;;;;;;;12.43;6.63;;;;;;;4.98;100.00;102974.94;5008548;28;20332;-69
2023/05/03 04:44:17;;;;;;;13.77;7.23;;;;;;;5.02;100.00;102975.25;5019235;28;20199;-69
2023/05/03 04:46:44;;;;;;;12.17;7.37;;;;;;;5.05;100.00;102974.63;5011625;28;20221;-69
2023/05/03 04:49:09;;;;;;;10.07;7.20;;;;;;;5.10;100.00;102980.91;5024098;28;20226;-69
2023/05/03 04:51:35;;;;;;;16.63;7.07;;;;;;;5.12;100.00;102985.38;5023254;28;22018;-68
2023/05/03 04:54:01;;;;;;;9.10;6.97;;;;;;;5.20;100.00;102983.41;5022259;28;21143;-69
2023/05/03 04:56:28;;;;;;;12.27;7.07;;;;;;;5.26;100.00;102988.94;5021005;28;20215;-69
2023/05/03 04:59:03;;;;;;;13.40;6.87;;;;;;;5.33;100.00;102993.69;5012544;28;20662;-69
2023/05/03 05:01:28;;;;;;;15.37;7.27;;;;;;;5.34;100.00;102992.94;5022165;28;20210;-70
2023/05/03 05:03:59;;;;;;;15.20;7.27;;;;;;;5.39;100.00;103006.84;5013545;28;20182;-69
2023/05/03 05:06:31;;;;;;;12.30;7.40;;;;;;;5.45;100.00;103005.66;5022515;28;20198;-69
2023/05/03 05:08:58;;;;;;;12.10;8.17;;;;;;;5.51;100.00;102998.50;5022280;28;20183;-69
2023/05/03 05:11:23;;;;;;;13.03;6.87;;;;;;;5.57;100.00;102991.31;5024400;28;20271;-69
2023/05/03 05:13:49;;;;;;;12.80;7.40;;;;;;;5.60;100.00;102996.63;5012133;28;20230;-69
2023/05/03 05:16:15;;;;;;;11.63;6.63;;;;;;;5.70;100.00;103001.59;5019675;28;20329;-69
2023/05/03 05:18:49;;;;;;;9.63;6.77;;;;;;;5.73;100.00;103003.50;5028576;28;20193;-69
2023/05/03 05:21:16;;;;;;;9.40;6.17;;;;;;;5.85;100.00;103006.97;5009014;28;20717;-69
2023/05/03 05:23:41;;;;;;;11.10;7.07;;;;;;;5.95;100.00;103004.31;5024907;28;20269;-69
2023/05/03 05:26:07;;;;;;;11.67;6.33;;;;;;;6.05;100.00;103016.91;5022964;28;20295;-69
2023/05/03 05:28:32;;;;;;;10.23;6.73;;;;;;;6.13;100.00;103010.72;5006046;28;20225;-69
2023/05/03 05:30:58;;;;;;;13.77;6.57;;;;;;;6.12;100.00;103017.47;5009984;28;20237;-69
2023/05/03 05:33:24;;;;;;;9.37;6.07;;;;;;;6.20;100.00;103012.91;5025101;28;20225;-69
2023/05/03 05:35:51;;;;;;;10.90;7.07;;;;;;;6.30;100.00;103018.78;5006849;28;20195;-70
2023/05/03 05:38:19;;;;;;;9.60;6.00;;;;;;;6.32;100.00;103019.78;5012799;28;20277;-69
2023/05/03 05:40:45;;;;;;;9.87;6.37;;;;;;;6.42;100.00;103016.22;4985343;28;20206;-69
2023/05/03 05:43:11;;;;;;;11.67;5.80;;;;;;;6.52;100.00;103018.63;5028692;28;20825;-69
2023/05/03 05:45:38;;;;;;;9.10;6.37;;;;;;;6.58;100.00;103019.09;5006305;28;20218;-68
2023/05/03 05:48:04;;;;;;;12.53;6.50;;;;;;;6.58;100.00;103024.16;5008513;28;20580;-69
2023/05/03 05:50:31;;;;;;;10.83;6.03;;;;;;;6.71;100.00;103026.78;5024459;28;20222;-69
2023/05/03 05:53:01;;;;;;;9.60;6.03;;;;;;;6.79;100.00;103025.66;5010990;28;20198;-69
2023/05/03 05:55:30;;;;;;;7.43;5.27;;;;;;;6.91;100.00;103024.81;5007981;28;20225;-70
2023/05/03 05:57:57;;;;;;;11.20;6.40;;;;;;;6.95;100.00;103019.16;5011933;28;20190;-69
2023/05/03 06:00:29;;;;;;;11.93;6.43;;;;;;;7.02;100.00;103023.03;5009070;28;20298;-68
2023/05/03 06:02:55;;;;;;;8.40;6.67;;;;;;;7.13;100.00;103027.16;5014086;28;20213;-70
2023/05/03 06:05:21;;;;;;;12.10;6.33;;;;;;;7.23;100.00;103027.03;5025970;28;20190;-70
2023/05/03 06:07:47;;;;;;;15.30;7.00;;;;;;;7.34;100.00;103021.00;5011493;28;20656;-69
2023/05/03 06:10:13;;;;;;;14.47;7.70;;;;;;;7.39;100.00;103028.19;5011352;28;20246;-69
2023/05/03 06:12:44;;;;;;;13.77;7.40;;;;;;;7.46;100.00;103020.13;5004449;28;20533;-69
2023/05/03 06:15:14;;;;;;;9.63;7.40;;;;;;;7.58;100.00;103027.72;5022788;28;20210;-69
2023/05/03 06:17:39;;;;;;;15.30;8.43;;;;;;;7.65;100.00;103032.44;5007745;28;20324;-69
2023/05/03 06:20:10;;;;;;;12.87;8.57;;;;;;;7.77;100.00;103029.03;5027185;28;20217;-69
2023/05/03 06:22:36;;;;;;;11.90;7.17;;;;;;;7.92;100.00;103036.81;5026423;28;20202;-69
2023/05/03 06:25:03;;;;;;;14.47;7.30;;;;;;;8.02;100.00;103026.41;5020370;28;20250;-68
2023/05/03 06:27:28;;;;;;;14.80;6.77;;;;;;;8.04;100.00;103023.19;5025499;28;20241;-70
2023/05/03 06:29:55;;;;;;;10.27;5.90;;;;;;;8.17;100.00;103032.50;5008493;28;20210;-69
2023/05/03 06:32:22;;;;;;;11.47;6.00;;;;;;;8.48;100.00;103039.66;5007037;28;20212;-69
2023/05/03 06:34:48;;;;;;;11.37;5.00;;;;;;;8.95;100.00;103023.06;5011000;28;20245;-69
2023/05/03 06:37:14;;;;;;;8.67;4.80;;;;;;;9.18;100.00;103015.13;5009731;28;20199;-70
2023/05/03 06:39:40;;;;;;;9.33;5.37;;;;;;;9.31;100.00;102981.78;5004135;28;20633;-70
2023/05/03 06:42:06;;;;;;;10.43;4.80;;;;;;;9.48;100.00;102982.78;5007186;28;20244;-70
2023/05/03 06:44:35;;;;;;;9.60;4.83;;;;;;;9.33;100.00;102985.34;5022287;28;20190;-70
2023/05/03 06:47:01;;;;;;;8.23;4.57;;;;;;;9.32;100.00;103013.38;5023944;28;20430;-70
2023/05/03 06:49:26;;;;;;;8.23;4.93;;;;;;;9.35;100.00;103021.22;5020896;28;20697;-69
2023/05/03 06:51:52;;;;;;;8.77;4.80;;;;;;;9.11;100.00;103000.19;5011235;28;20198;-70
2023/05/03 06:54:18;;;;;;;8.13;4.50;;;;;;;9.18;100.00;103015.13;5027342;28;20218;-69
2023/05/03 06:56:45;;;;;;;11.63;4.37;;;;;;;9.42;100.00;103003.78;5028252;28;20190;-68
2023/05/03 06:59:10;;;;;;;8.60;4.77;;;;;;;9.64;100.00;103011.00;5023619;28;20320;-68
2023/05/03 07:01:36;;;;;;;11.23;4.73;;;;;;;9.67;100.00;102983.94;5023160;28;20672;-70
2023/05/03 07:04:01;;;;;;;9.90;4.67;;;;;;;9.94;100.00;102982.03;5013282;28;20202;-69
2023/05/03 07:06:27;;;;;;;9.83;3.63;;;;;;;10.19;100.00;102924.63;5025519;28;20191;-69
2023/05/03 07:08:53;;;;;;;8.43;3.37;;;;;;;10.09;100.00;102860.94;5024636;28;20192;-69
2023/05/03 07:11:24;;;;;;;8.23;3.70;;;;;;;10.17;100.00;102853.69;5028403;28;20214;-69
2023/05/03 07:13:50;;;;;;;6.97;3.20;;;;;;;10.18;100.00;102810.25;5023409;28;20385;-69
2023/05/03 07:16:16;;;;;;;7.17;3.63;;;;;;;10.01;100.00;102866.44;5030376;28;20190;-69
2023/05/03 07:18:41;;;;;;;4.37;2.50;;;;;;;10.22;100.00;102776.31;5028163;28;20193;-69
2023/05/03 07:21:07;;;;;;;8.07;3.30;;;;;;;10.21;100.00;102712.25;5032528;28;20591;-69
2023/05/03 07:23:33;;;;;;;4.50;2.70;;;;;;;10.25;100.00;102739.75;5028849;28;20194;-70
2023/05/03 07:25:58;;;;;;;12.20;3.63;;;;;;;10.27;100.00;102743.31;5029867;28;20205;-69
2023/05/03 07:28:23;;;;;;;7.63;3.27;;;;;;;9.95;100.00;102772.28;5028687;28;20197;-69
2023/05/03 07:30:50;;;;;;;4.60;2.80;;;;;;;10.00;100.00;102765.72;5011186;28;20218;-69
2023/05/03 07:33:15;;;;;;;5.70;2.63;;;;;;;9.98;100.00;102759.66;5009725;28;20198;-69
2023/05/03 07:35:41;;;;;;;7.27;3.17;;;;;;;10.23;100.00;102774.66;5014241;28;20238;-69
2023/05/03 07:38:06;;;;;;;5.63;2.63;;;;;;;9.91;100.00;102728.56;5009666;28;20240;-69
2023/05/03 07:40:32;;;;;;;7.23;3.03;;;;;;;10.17;100.00;102713.78;5021174;28;20225;-69
2023/05/03 07:43:00;;;;;;;10.60;2.77;;;;;;;10.26;100.00;102683.53;5024604;28;20613;-69
2023/05/03 07:45:26;;;;;;;6.80;2.63;;;;;;;10.28;100.00;102673.38;5024936;28;20194;-70
2023/05/03 07:47:51;;;;;;;6.23;2.30;;;;;;;10.32;100.00;102657.34;5027656;28;20359;-69
2023/05/03 07:50:17;;;;;;;7.43;2.70;;;;;;;10.27;100.00;102641.75;5030875;28;20755;-70
2023/05/03 07:52:43;;;;;;;5.43;2.53;;;;;;;10.34;100.00;102668.53;5024234;28;20194;-69
2023/05/03 07:55:08;;;;;;;7.63;2.83;;;;;;;10.33;100.00;102679.59;5028076;28;20222;-69
2023/05/03 07:57:35;;;;;;;6.10;2.53;;;;;;;10.26;100.00;102657.03;5023117;28;20225;-69
2023/05/03 08:00:01;;;;;;;5.87;2.43;;;;;;;10.24;100.00;102689.38;5028247;28;20252;-68
2023/05/03 08:02:26;;;;;;;5.97;2.50;;;;;;;10.30;100.00;102680.31;5028469;28;20203;-69
2023/05/03 08:04:53;;;;;;;6.90;2.87;;;;;;;10.38;100.00;102691.81;5030028;28;20194;-69
2023/05/03 08:07:19;;;;;;;4.57;2.47;;;;;;;10.37;100.00;102656.75;5030708;28;20214;-69
2023/05/03 08:09:44;;;;;;;9.27;2.77;;;;;;;10.45;100.00;102667.38;5023646;28;20237;-69
2023/05/03 08:12:10;;;;;;;4.13;2.60;;;;;;;10.52;100.00;102662.66;5027673;28;20206;-70
2023/05/03 08:14:36;;;;;;;4.70;2.47;;;;;;;10.64;100.00;102647.84;5024847;28;20216;-70
2023/05/03 08:17:03;;;;;;;5.13;2.40;;;;;;;10.73;100.00;102620.09;5028991;28;20194;-70
2023/05/03 08:19:29;;;;;;;5.50;2.27;;;;;;;10.85;100.00;102599.31;5026461;28;20222;-70
2023/05/03 08:21:55;;;;;;;6.93;2.50;;;;;;;10.99;100.00;102594.00;5026179;28;20206;-70
2023/05/03 08:24:22;;;;;;;6.27;2.00;;;;;;;11.20;100.00;102571.88;5022848;28;20202;-71
2023/05/03 08:26:48;;;;;;;6.57;2.10;;;;;;;11.19;100.00;102534.25;5022494;28;20206;-71
2023/05/03 08:29:14;;;;;;;4.67;2.20;;;;;;;11.11;100.00;102511.66;5027309;28;20202;-70
2023/05/03 08:31:40;;;;;;;6.40;1.90;;;;;;;11.30;100.00;102520.19;5022269;28;20199;-70
2023/05/03 08:34:06;;;;;;;5.20;2.10;;;;;;;11.42;100.00;102514.72;5026281;28;20697;-70
2023/05/03 08:36:33;;;;;;;5.00;2.07;;;;;;;11.32;100.00;102504.88;5023867;28;20710;-69
2023/05/03 08:38:58;;;;;;;6.43;1.83;;;;;;;11.42;99.37;102496.75;5023027;28;20195;-69
2023/05/03 08:41:30;;;;;;;5.60;2.00;;;;;;;11.54;97.47;102479.31;5022217;28;20229;-69
2023/05/03 08:43:58;;;;;;;5.00;1.40;;;;;;;11.56;92.69;102440.09;5026083;28;20272;-69
2023/05/03 08:46:24;;;;;;;3.43;1.40;;;;;;;11.74;88.11;102425.47;5027278;28;20205;-69
2023/05/03 08:48:51;;;;;;;3.60;1.60;;;;;;;11.69;81.18;102354.25;5028763;28;20277;-68
2023/05/03 08:51:18;;;;;;;3.70;1.40;;;;;;;11.85;82.33;102364.31;5024904;28;20248;-68
2023/05/03 08:53:44;;;;;;;3.70;1.60;;;;;;;11.90;85.31;102394.44;5020185;28;20191;-69
2023/05/03 08:56:15;;;;;;;3.10;1.23;;;;;;;11.54;80.18;102367.34;5009506;28;20205;-69
2023/05/03 08:58:40;;;;;;;3.53;1.33;;;;;;;11.62;79.12;102377.94;5026400;28;20198;-70
2023/05/03 09:01:08;;;;;;;4.50;1.10;;;;;;;11.65;77.20;102358.41;5026898;28;20218;-69
2023/05/03 09:03:34;;;;;;;5.17;1.50;;;;;;;11.69;76.60;102357.69;5018475;28;20191;-69
2023/05/03 09:06:03;;;;;;;2.97;1.33;;;;;;;11.77;75.22;102355.44;5021514;28;20198;-69
2023/05/03 09:08:30;;;;;;;2.50;1.00;;;;;;;11.88;76.19;102370.44;5020451;28;20237;-69
2023/05/03 09:10:56;;;;;;;4.83;1.20;;;;;;;11.99;78.91;102384.53;5021473;28;20218;-69
2023/05/03 09:13:30;;;;;;;6.00;1.77;;;;;;;11.92;68.62;102315.81;5024295;28;20208;-69
2023/05/03 09:15:56;;;;;;;3.13;1.20;;;;;;;12.18;68.68;102322.81;5026223;28;20781;-69
2023/05/03 09:18:23;;;;;;;3.40;1.27;;;;;;;12.72;67.03;102309.31;5027833;28;20682;-71
2023/05/03 09:20:50;;;;;;;3.93;1.13;;;;;;;12.73;69.35;102353.91;5024953;28;20217;-70
2023/05/03 09:23:29;;;;;;;4.50;1.70;;;;;;;12.63;63.78;102314.13;5013185;28;20205;-70
2023/05/03 09:26:06;;;;;;;2.57;1.10;;;;;;;12.77;63.73;102320.63;5022921;28;20195;-70
2023/05/03 09:28:41;;;;;;;2.70;1.07;;;;;;;12.74;63.02;102374.53;5009035;28;20209;-69
2023/05/03 09:31:06;;;;;;;3.93;1.33;;;;;;;12.81;66.77;102447.59;5025938;28;20224;-70
2023/05/03 09:33:32;;;;;;;4.03;1.27;;;;;;;12.83;61.87;102415.09;5024428;28;20285;-71
2023/05/03 09:36:03;;;;;;;3.33;1.50;;;;;;;12.90;66.08;102463.34;5023382;28;20206;-71
2023/05/03 09:38:33;;;;;;;3.63;1.13;;;;;;;12.80;65.11;102458.66;5020928;28;20202;-69
2023/05/03 09:41:00;;;;;;;3.23;1.47;;;;;;;12.93;69.37;102488.28;5021837;28;20734;-70
2023/05/03 09:43:27;;;;;;;2.90;1.40;;;;;;;13.10;69.22;102507.78;5009376;28;20296;-71
2023/05/03 09:46:07;;;;;;;3.60;1.40;;;;;;;13.01;64.85;102458.59;5020682;28;20250;-71
2023/05/03 09:48:32;;;;;;;5.03;1.60;;;;;;;13.11;64.60;102466.69;5021162;28;20349;-69
2023/05/03 09:50:58;;;;;;;6.93;1.30;;;;;;;13.17;63.17;102458.34;5025680;28;20297;-69
2023/05/03 09:53:24;;;;;;;4.83;1.60;;;;;;;12.95;61.27;102444.66;5024197;28;20828;-68
2023/05/03 09:55:51;;;;;;;2.90;1.37;;;;;;;13.00;64.13;102487.72;4975973;28;20214;-69
2023/05/03 09:58:17;;;;;;;2.87;1.37;;;;;;;12.88;62.92;102482.97;5020614;28;20351;-68
2023/05/03 10:00:45;;;;;;;4.27;1.50;;;;;;;13.13;68.05;102523.34;5017995;28;20225;-69
2023/05/03 10:03:17;;;;;;;3.40;1.40;;;;;;;13.21;62.43;102475.63;5023241;28;20209;-69
2023/05/03 10:05:45;;;;;;;2.50;1.50;;;;;;;13.38;60.52;102469.34;5021437;28;20191;-70
2023/05/03 10:08:23;;;;;;;5.30;1.50;;;;;;;13.52;61.17;102481.88;5021778;28;20288;-70
2023/05/03 10:10:53;;;;;;;2.90;1.27;;;;;;;13.74;59.47;102468.00;5019338;28;20630;-69
2023/05/03 10:13:21;;;;;;;3.87;1.53;;;;;;;13.75;57.99;102473.19;5021632;28;20683;-70
2023/05/03 10:15:52;;;;;;;4.10;1.50;;;;;;;13.93;58.21;102486.69;5024909;28;20331;-68
2023/05/03 10:18:20;;;;;;;3.37;1.40;;;;;;;13.97;56.22;102490.22;5027858;28;20218;-71
2023/05/03 10:20:58;;;;;;;3.23;1.57;;;;;;;14.74;53.91;102471.16;5022004;28;20213;-70
2023/05/03 10:23:24;;;;;;;2.73;1.27;;;;;;;15.15;52.17;102480.06;5009350;28;20229;-70
2023/05/03 10:26:06;;;;;;;3.57;1.23;;;;;;;15.92;50.99;102540.69;5022048;28;20195;-70
2023/05/03 10:28:36;;;;;;;3.00;1.57;;;;;;;15.50;46.71;102672.97;5007579;28;20205;-70
2023/05/03 10:31:01;;;;;;;3.23;1.30;;;;;;;15.88;47.63;102693.03;5026187;28;20214;-70
2023/05/03 10:33:33;;;;;;;3.40;1.23;;;;;;;15.18;48.25;102717.56;5026347;28;20289;-70
2023/05/03 10:36:05;;;;;;;5.40;1.60;;;;;;;14.61;49.51;102749.25;5022925;28;20648;-69
2023/05/03 10:38:31;;;;;;;3.00;1.57;;;;;;;15.07;51.03;102773.16;5023095;28;20194;-69
2023/05/03 10:41:00;;;;;;;2.77;1.53;;;;;;;15.22;50.93;102765.88;5026357;28;20715;-69
2023/05/03 10:43:31;;;;;;;2.70;1.50;;;;;;;15.60;50.62;102739.53;5024073;28;20293;-70
2023/05/03 10:46:01;;;;;;;1.97;1.40;;;;;;;15.51;49.99;102726.38;5021744;28;20206;-70
2023/05/03 10:48:28;;;;;;;4.80;1.77;;;;;;;16.12;49.58;102720.38;5024691;28;20201;-70
2023/05/03 10:50:54;;;;;;;3.87;1.70;;;;;;;16.66;48.07;102698.56;5019750;28;20269;-70
2023/05/03 10:53:37;;;;;;;5.00;1.70;;;;;;;15.61;47.83;102734.44;5024835;28;20194;-70
2023/05/03 10:56:06;;;;;;;3.27;1.70;;;;;;;15.39;47.92;102734.66;5025482;28;20206;-70
2023/05/03 10:58:55;;;;;;;2.83;1.90;;;;;;;15.28;50.05;102760.94;5026325;28;21050;-69
2023/05/03 11:01:23;;;;;;;6.00;2.10;;;;;;;14.67;50.97;102770.97;5024930;28;20217;-69
2023/05/03 11:04:04;;;;;;;5.27;1.47;;;;;;;15.79;49.93;102752.19;5021604;28;20276;-70
2023/05/03 11:06:33;;;;;;;2.80;1.90;;;;;;;16.11;47.50;102697.97;5019416;28;20210;-70
2023/05/03 11:08:59;;;;;;;6.00;2.13;;;;;;;15.62;46.59;102688.81;5022194;28;20199;-71
2023/05/03 11:11:25;;;;;;;2.80;1.60;;;;;;;16.70;47.38;102707.28;5024244;28;20214;-70
2023/05/03 11:13:51;;;;;;;3.03;1.50;;;;;;;16.97;46.07;102703.66;5021753;28;20197;-69
2023/05/03 11:16:17;;;;;;;3.23;1.50;;;;;;;16.75;46.57;102705.66;5027699;28;20321;-69
2023/05/03 11:18:43;;;;;;;4.07;1.97;;;;;;;17.24;46.05;102711.16;5019173;28;20225;-69
2023/05/03 11:21:10;;;;;;;4.97;1.77;;;;;;;17.21;45.74;102716.25;5010569;28;20705;-69
2023/05/03 11:23:37;;;;;;;2.67;1.70;;;;;;;16.47;45.52;102708.41;5017077;28;20664;-69